createdAt,value
2019-04-12T00:01:33.180Z,5.20
2019-04-12T00:04:04.057Z,5.10
2019-04-12T00:06:33.709Z,5.20
2019-04-12T00:09:05.027Z,4.70
2019-04-12T00:11:34.631Z,5.07
2019-04-12T00:14:04.552Z,5.17
2019-04-12T00:16:33.801Z,4.53
2019-04-12T00:19:02.969Z,5.43
2019-04-12T00:21:32.136Z,5.30
2019-04-12T00:24:01.344Z,5.30
2019-04-12T00:26:30.513Z,5.50
2019-04-12T00:28:59.673Z,5.47
2019-04-12T00:31:28.930Z,6.23
2019-04-12T00:33:58.104Z,5.70
2019-04-12T00:36:27.285Z,5.40
2019-04-12T00:38:58.388Z,5.30
2019-04-12T00:41:27.327Z,5.57
2019-04-12T00:43:56.490Z,5.70
2019-04-12T00:46:25.664Z,6.10
2019-04-12T00:48:55.185Z,5.30
2019-04-12T00:51:24.370Z,5.50
2019-04-12T00:53:53.596Z,5.47
2019-04-12T00:56:22.780Z,5.90
2019-04-12T00:58:51.942Z,5.40
2019-04-12T01:01:25.448Z,5.50
2019-04-12T01:03:56.260Z,5.27
2019-04-12T01:06:25.423Z,5.90
2019-04-12T01:08:54.593Z,5.33
2019-04-12T01:11:24.897Z,5.43
2019-04-12T01:13:57.168Z,5.80
2019-04-12T01:16:25.553Z,5.07
2019-04-12T01:18:54.745Z,5.50
2019-04-12T01:21:23.997Z,5.70
2019-04-12T01:23:53.177Z,5.40
2019-04-12T01:26:23.412Z,5.47
2019-04-12T01:28:52.592Z,5.00
2019-04-12T01:31:21.753Z,5.93
2019-04-12T01:33:51.222Z,5.57
2019-04-12T01:36:20.381Z,4.97
2019-04-12T01:38:51.333Z,6.00
2019-04-12T01:41:20.513Z,5.43
2019-04-12T01:43:49.694Z,5.20
2019-04-12T01:46:18.860Z,5.17
2019-04-12T01:48:48.040Z,5.80
2019-04-12T01:51:17.200Z,6.03
2019-04-12T01:53:46.372Z,5.70
2019-04-12T01:56:15.536Z,5.70
2019-04-12T01:58:44.717Z,5.73
2019-04-12T02:01:14.156Z,5.53
2019-04-12T02:03:43.337Z,5.40
2019-04-12T02:06:12.497Z,5.10
2019-04-12T02:08:41.965Z,5.17
2019-04-12T02:11:12.208Z,6.03
2019-04-12T02:13:41.393Z,5.50
2019-04-12T02:16:10.889Z,5.90
2019-04-12T02:18:40.077Z,5.40
2019-04-12T02:21:09.490Z,5.47
2019-04-12T02:23:38.665Z,5.53
2019-04-12T02:26:07.849Z,6.03
2019-04-12T02:28:55.176Z,5.27
2019-04-12T02:31:32.282Z,5.70
2019-04-12T02:34:01.514Z,5.13
2019-04-12T02:36:32.510Z,6.10
2019-04-12T02:39:01.674Z,5.93
2019-04-12T02:41:33.014Z,5.07
2019-04-12T02:44:02.462Z,5.40
2019-04-12T02:46:42.695Z,5.67
2019-04-12T02:49:17.200Z,5.87
2019-04-12T02:51:49.565Z,5.53
2019-04-12T02:54:20.731Z,5.20
2019-04-12T02:56:58.352Z,5.37
2019-04-12T02:59:33.627Z,5.50
2019-04-12T03:02:04.129Z,5.60
2019-04-12T03:04:33.313Z,5.33
2019-04-12T03:07:02.795Z,5.63
2019-04-12T03:09:32.956Z,5.13
2019-04-12T03:12:03.784Z,5.50
2019-04-12T03:14:35.377Z,5.57
2019-04-12T03:17:04.605Z,5.90
2019-04-12T03:19:33.860Z,5.70
2019-04-12T03:22:04.346Z,6.13
2019-04-12T03:24:33.582Z,6.07
2019-04-12T03:27:03.029Z,5.67
2019-04-12T03:29:32.212Z,6.10
2019-04-12T03:32:01.430Z,6.00
2019-04-12T03:34:30.922Z,6.07
2019-04-12T03:37:00.169Z,6.53
2019-04-12T03:39:30.780Z,5.90
2019-04-12T03:42:00.220Z,5.50
2019-04-12T03:44:29.775Z,5.40
2019-04-12T03:46:59.496Z,6.27
2019-04-12T03:49:28.853Z,5.90
2019-04-12T03:51:58.286Z,5.70
2019-04-12T03:54:27.694Z,5.93
2019-04-12T03:56:56.878Z,6.53
2019-04-12T03:59:26.216Z,6.20
2019-04-12T04:02:01.211Z,5.90
2019-04-12T04:04:30.548Z,6.30
2019-04-12T04:06:59.713Z,6.23
2019-04-12T04:09:29.064Z,6.23
2019-04-12T04:12:00.387Z,6.20
2019-04-12T04:14:29.933Z,6.50
2019-04-12T04:17:17.750Z,6.23
2019-04-12T04:19:51.254Z,6.93
2019-04-12T04:22:20.898Z,6.37
2019-04-12T04:24:56.111Z,5.60
2019-04-12T04:27:27.007Z,5.67
2019-04-12T04:30:01.230Z,6.50
2019-04-12T04:32:41.208Z,6.13
2019-04-12T04:35:10.854Z,6.30
2019-04-12T04:37:40.997Z,6.50
2019-04-12T04:40:10.444Z,6.17
2019-04-12T04:42:39.678Z,6.90
2019-04-12T04:45:09.033Z,5.97
2019-04-12T04:47:38.262Z,6.60
2019-04-12T04:50:07.604Z,6.10
2019-04-12T04:52:36.841Z,6.80
2019-04-12T04:55:06.759Z,6.10
2019-04-12T04:57:36.216Z,6.40
2019-04-12T05:00:07.326Z,6.43
2019-04-12T05:02:36.873Z,6.17
2019-04-12T05:05:08.640Z,6.33
2019-04-12T05:07:37.889Z,6.43
2019-04-12T05:10:07.322Z,6.37
2019-04-12T05:12:36.569Z,6.03
2019-04-12T05:15:07.264Z,6.70
2019-04-12T05:17:36.505Z,6.40
2019-04-12T05:20:06.749Z,6.70
2019-04-12T05:22:35.926Z,6.53
2019-04-12T05:25:05.457Z,5.60
2019-04-12T05:27:34.792Z,6.40
2019-04-12T05:30:05.510Z,5.90
2019-04-12T05:32:34.744Z,6.43
2019-04-12T05:35:04.973Z,5.80
2019-04-12T05:37:34.153Z,6.20
2019-04-12T05:40:05.469Z,5.77
2019-04-12T05:42:35.009Z,5.90
2019-04-12T05:45:10.220Z,6.63
2019-04-12T05:47:46.863Z,6.60
2019-04-12T05:50:17.863Z,6.30
2019-04-12T05:52:47.052Z,6.60
2019-04-12T05:55:17.480Z,5.90
2019-04-12T05:57:48.310Z,6.17
2019-04-12T06:00:24.681Z,6.20
2019-04-12T06:02:57.824Z,6.10
2019-04-12T06:05:24.732Z,6.17
2019-04-12T06:07:53.933Z,6.03
2019-04-12T06:10:23.099Z,6.13
2019-04-12T06:12:52.280Z,6.80
2019-04-12T06:15:21.629Z,6.23
2019-04-12T06:17:50.980Z,6.00
2019-04-12T06:20:36.816Z,6.00
2019-04-12T06:23:06.272Z,6.20
2019-04-12T06:25:45.996Z,6.70
2019-04-12T06:28:15.180Z,6.07
2019-04-12T06:30:46.270Z,6.23
2019-04-12T06:33:15.521Z,6.83
2019-04-12T06:35:44.698Z,6.00
2019-04-12T06:38:13.870Z,6.83
2019-04-12T06:40:43.040Z,6.37
2019-04-12T06:43:12.566Z,6.90
2019-04-12T06:45:41.737Z,6.13
2019-04-12T06:48:10.930Z,6.67
2019-04-12T06:50:41.725Z,6.30
2019-04-12T06:53:10.909Z,6.67
2019-04-12T06:55:53.524Z,6.77
2019-04-12T06:58:22.706Z,6.17
2019-04-12T07:00:53.509Z,6.10
2019-04-12T07:03:36.585Z,5.83
2019-04-12T07:06:05.838Z,5.47
2019-04-12T07:08:35.283Z,5.97
2019-04-12T07:11:04.445Z,6.00
2019-04-12T07:13:33.635Z,6.00
2019-04-12T07:16:02.793Z,5.53
2019-04-12T07:18:33.053Z,5.30
2019-04-12T07:21:02.224Z,5.33
2019-04-12T07:23:31.394Z,5.50
2019-04-12T07:26:00.615Z,5.53
2019-04-12T07:28:29.813Z,5.40
2019-04-12T07:30:58.996Z,5.10
2019-04-12T07:33:28.402Z,5.50
2019-04-12T07:35:57.641Z,5.60
2019-04-12T07:38:26.887Z,5.40
2019-04-12T07:40:56.313Z,6.50
2019-04-12T07:43:25.564Z,5.13
2019-04-12T07:45:55.696Z,5.77
2019-04-12T07:48:24.886Z,5.90
2019-04-12T07:51:13.833Z,5.67
2019-04-12T07:54:02.648Z,5.20
2019-04-12T07:56:32.017Z,6.10
2019-04-12T07:59:08.377Z,6.57
2019-04-12T08:01:40.174Z,6.43
2019-04-12T08:04:16.764Z,5.17
2019-04-12T08:06:50.517Z,5.47
2019-04-12T08:09:19.689Z,5.53
2019-04-12T08:11:48.873Z,6.03
2019-04-12T08:14:19.505Z,5.17
2019-04-12T08:16:48.856Z,5.80
2019-04-12T08:19:18.040Z,5.57
2019-04-12T08:21:47.296Z,5.97
2019-04-12T08:24:16.529Z,5.90
2019-04-12T08:26:45.721Z,6.30
2019-04-12T08:29:14.975Z,6.53
2019-04-12T08:31:44.149Z,6.40
2019-04-12T08:34:13.365Z,6.57
2019-04-12T08:36:43.645Z,6.87
2019-04-12T08:39:12.828Z,6.30
2019-04-12T08:41:42.010Z,6.27
2019-04-12T08:44:11.189Z,7.00
2019-04-12T08:46:40.361Z,7.07
2019-04-12T08:49:09.562Z,6.50
2019-04-12T08:51:38.725Z,6.93
2019-04-12T08:54:08.014Z,7.27
2019-04-12T08:56:37.282Z,7.57
2019-04-12T08:59:06.502Z,6.83
2019-04-12T09:01:35.743Z,7.00
2019-04-12T09:04:04.948Z,6.97
2019-04-12T09:06:34.185Z,7.27
2019-04-12T09:09:09.936Z,6.70
2019-04-12T09:11:39.298Z,6.60
2019-04-12T09:14:08.886Z,7.20
2019-04-12T09:16:38.135Z,7.10
2019-04-12T09:19:24.414Z,7.10
2019-04-12T09:21:58.552Z,8.20
2019-04-12T09:24:32.398Z,6.93
2019-04-12T09:27:01.853Z,7.40
2019-04-12T09:29:32.042Z,7.40
2019-04-12T09:32:01.461Z,6.53
2019-04-12T09:34:30.701Z,6.30
2019-04-12T09:36:59.944Z,7.47
2019-04-12T09:39:29.129Z,7.40
2019-04-12T09:41:58.291Z,7.63
2019-04-12T09:44:27.465Z,7.67
2019-04-12T09:46:56.625Z,7.27
2019-04-12T09:49:25.809Z,7.60
2019-04-12T09:51:54.974Z,7.73
2019-04-12T09:54:24.158Z,7.33
2019-04-12T09:56:53.316Z,7.97
2019-04-12T09:59:22.496Z,8.83
2019-04-12T10:01:51.679Z,8.07
2019-04-12T10:04:20.845Z,7.70
2019-04-12T10:06:50.029Z,8.73
2019-04-12T10:09:27.499Z,8.03
2019-04-12T10:11:50.538Z,8.73
2019-04-12T10:14:19.980Z,7.20
2019-04-12T10:16:49.156Z,8.77
2019-04-12T10:19:18.323Z,7.80
2019-04-12T10:21:47.508Z,8.40
2019-04-12T10:24:18.695Z,8.50
2019-04-12T10:26:47.918Z,7.97
2019-04-12T10:29:17.101Z,8.07
2019-04-12T10:31:46.521Z,8.17
2019-04-12T10:34:15.698Z,8.37
2019-04-12T10:36:50.965Z,9.53
2019-04-12T10:39:17.378Z,8.50
2019-04-12T10:41:46.554Z,8.43
2019-04-12T10:44:34.231Z,8.73
2019-04-12T10:47:10.974Z,8.50
2019-04-12T10:49:50.693Z,8.90
2019-04-12T10:52:37.913Z,9.33
2019-04-12T10:55:08.741Z,9.53
2019-04-12T10:57:37.917Z,9.43
2019-04-12T11:00:07.860Z,10.10
2019-04-12T11:02:37.027Z,9.47
2019-04-12T11:05:07.153Z,10.13
2019-04-12T11:07:36.334Z,10.30
2019-04-12T11:10:07.064Z,10.23
2019-04-12T11:12:36.235Z,10.10
2019-04-12T11:15:05.598Z,10.87
2019-04-12T11:17:34.769Z,10.27
2019-04-12T11:20:04.984Z,11.00
2019-04-12T11:22:34.177Z,10.83
2019-04-12T11:25:04.119Z,9.93
2019-04-12T11:27:33.318Z,10.50
2019-04-12T11:30:02.490Z,10.60
2019-04-12T11:32:31.908Z,9.30
2019-04-12T11:35:01.181Z,10.07
2019-04-12T11:37:30.360Z,10.30
2019-04-12T11:39:59.552Z,10.37
2019-04-12T11:42:28.750Z,9.43
2019-04-12T11:44:57.933Z,10.60
2019-04-12T11:47:27.128Z,10.73
2019-04-12T11:49:56.296Z,9.47
2019-04-12T11:52:25.477Z,9.07
2019-04-12T11:54:54.668Z,9.27
2019-04-12T11:57:24.125Z,9.70
2019-04-12T11:59:53.293Z,9.88
2019-04-12T12:02:33.153Z,9.63
2019-04-12T12:05:06.870Z,9.97
2019-04-12T12:07:50.441Z,11.10
2019-04-12T12:10:37.587Z,10.00
2019-04-12T12:13:24.685Z,9.33
2019-04-12T12:16:15.316Z,10.23
2019-04-12T12:18:52.246Z,11.07
2019-04-12T12:21:21.423Z,10.40
2019-04-12T12:23:50.624Z,10.20
2019-04-12T12:26:19.799Z,10.77
2019-04-12T12:28:48.988Z,10.33
2019-04-12T12:31:18.164Z,10.27
2019-04-12T12:33:47.348Z,10.40
2019-04-12T12:36:16.518Z,9.87
2019-04-12T12:38:45.710Z,11.17
2019-04-12T12:41:14.880Z,10.43
2019-04-12T12:43:44.068Z,11.37
2019-04-12T12:46:16.081Z,10.70
2019-04-12T12:48:45.273Z,10.60
2019-04-12T12:51:14.456Z,10.17
2019-04-12T12:53:44.633Z,10.83
2019-04-12T12:56:13.836Z,11.17
2019-04-12T12:58:42.980Z,10.93
2019-04-12T13:01:12.169Z,11.40
2019-04-12T13:03:41.336Z,10.33
2019-04-12T13:06:10.521Z,11.40
2019-04-12T13:08:39.692Z,11.73
2019-04-12T13:11:09.064Z,11.30
2019-04-12T13:13:38.257Z,11.30
2019-04-12T13:16:07.717Z,11.30
2019-04-12T13:18:36.897Z,11.67
2019-04-12T13:21:06.092Z,11.57
2019-04-12T13:23:35.268Z,12.47
2019-04-12T13:26:05.084Z,11.93
2019-04-12T13:28:36.966Z,12.20
2019-04-12T13:31:19.217Z,12.27
2019-04-12T13:33:50.050Z,11.70
2019-04-12T13:36:37.508Z,9.90
2019-04-12T13:39:26.212Z,11.63
2019-04-12T13:41:55.390Z,11.50
2019-04-12T13:44:24.577Z,10.97
2019-04-12T13:46:53.753Z,11.57
2019-04-12T13:49:23.216Z,10.90
2019-04-12T13:51:52.726Z,11.67
2019-04-12T13:54:21.916Z,11.10
2019-04-12T13:56:52.153Z,10.77
2019-04-12T13:59:21.416Z,11.77
2019-04-12T14:01:50.585Z,12.77
2019-04-12T14:04:19.769Z,12.37
2019-04-12T14:06:48.962Z,10.70
2019-04-12T14:09:18.138Z,12.00
2019-04-12T14:11:47.340Z,11.03
2019-04-12T14:14:16.525Z,11.50
2019-04-12T14:16:45.699Z,9.87
2019-04-12T14:19:14.878Z,12.07
2019-04-12T14:21:44.054Z,10.57
2019-04-12T14:24:13.246Z,11.37
2019-04-12T14:26:42.437Z,12.10
2019-04-12T14:29:11.676Z,12.47
2019-04-12T14:31:42.520Z,11.23
2019-04-12T14:34:13.857Z,11.43
2019-04-12T14:36:47.672Z,11.17
2019-04-12T14:39:18.021Z,11.50
2019-04-12T14:41:47.205Z,12.00
2019-04-12T14:44:20.709Z,12.00
2019-04-12T14:46:57.357Z,11.00
2019-04-12T14:49:26.548Z,10.90
2019-04-12T14:51:57.551Z,10.60
2019-04-12T14:54:26.749Z,12.00
2019-04-12T14:56:56.016Z,10.80
2019-04-12T14:59:25.197Z,12.60
2019-04-12T15:01:54.365Z,12.00
2019-04-12T15:04:23.574Z,11.57
2019-04-12T15:06:52.750Z,11.90
2019-04-12T15:09:21.960Z,10.90
2019-04-12T15:11:51.136Z,10.90
2019-04-12T15:14:20.322Z,10.83
2019-04-12T15:16:49.497Z,11.57
2019-04-12T15:19:18.686Z,11.03
2019-04-12T15:21:47.873Z,11.40
2019-04-12T15:24:17.082Z,11.50
2019-04-12T15:26:46.235Z,11.80
2019-04-12T15:29:15.433Z,12.10
2019-04-12T15:31:44.600Z,10.80
2019-04-12T15:34:13.768Z,10.80
2019-04-12T15:36:42.955Z,11.33
2019-04-12T15:39:12.124Z,11.13
2019-04-12T15:41:41.317Z,11.43
2019-04-12T15:44:10.509Z,11.40
2019-04-12T15:46:39.680Z,11.80
2019-04-12T15:49:08.859Z,12.07
2019-04-12T15:51:38.033Z,10.80
2019-04-12T15:54:07.222Z,12.13
2019-04-12T15:56:36.421Z,12.13
2019-04-12T15:59:05.602Z,10.77
2019-04-12T16:01:35.239Z,11.27
2019-04-12T16:04:04.669Z,11.23
2019-04-12T16:06:33.837Z,11.67
2019-04-12T16:09:16.745Z,11.33
2019-04-12T16:11:55.025Z,11.33
2019-04-12T16:14:24.389Z,10.70
2019-04-12T16:17:08.833Z,9.80
2019-04-12T16:19:38.280Z,11.50
2019-04-12T16:22:07.458Z,10.90
2019-04-12T16:24:36.645Z,10.53
2019-04-12T16:27:05.889Z,10.50
2019-04-12T16:29:45.517Z,10.60
2019-04-12T16:32:32.608Z,9.90
2019-04-12T16:35:12.166Z,9.93
2019-04-12T16:37:51.768Z,11.33
2019-04-12T16:40:21.409Z,11.07
2019-04-12T16:42:50.609Z,10.60
2019-04-12T16:45:19.813Z,11.03
2019-04-12T16:47:48.991Z,10.20
2019-04-12T16:50:18.422Z,10.47
2019-04-12T16:52:47.625Z,11.37
2019-04-12T16:55:16.805Z,10.30
2019-04-12T16:57:45.969Z,10.20
2019-04-12T17:00:15.593Z,10.13
2019-04-12T17:02:44.764Z,11.17
2019-04-12T17:05:13.970Z,11.57
2019-04-12T17:07:51.217Z,11.37
2019-04-12T17:10:14.040Z,10.57
2019-04-12T17:12:43.217Z,9.83
2019-04-12T17:15:12.486Z,10.83
2019-04-12T17:17:41.696Z,10.70
2019-04-12T17:20:10.955Z,12.20
2019-04-12T17:22:40.125Z,10.67
2019-04-12T17:25:09.312Z,10.77
2019-04-12T17:27:38.765Z,10.87
2019-04-12T17:30:08.025Z,11.13
2019-04-12T17:32:37.189Z,10.97
2019-04-12T17:35:06.456Z,11.73
2019-04-12T17:37:35.872Z,11.40
2019-04-12T17:40:06.753Z,11.77
2019-04-12T17:42:35.928Z,11.30
2019-04-12T17:45:08.404Z,11.33
2019-04-12T17:47:37.750Z,11.13
2019-04-12T17:50:11.577Z,11.53
2019-04-12T17:52:42.390Z,11.33
2019-04-12T17:55:19.269Z,10.60
2019-04-12T17:57:48.441Z,11.50
2019-04-12T18:00:25.333Z,11.20
2019-04-12T18:02:54.675Z,10.53
2019-04-12T18:05:23.859Z,10.77
2019-04-12T18:07:53.052Z,11.57
2019-04-12T18:10:22.227Z,10.87
2019-04-12T18:12:51.413Z,11.20
2019-04-12T18:15:22.434Z,11.80
2019-04-12T18:17:51.612Z,11.97
2019-04-12T18:20:20.946Z,10.63
2019-04-12T18:22:50.185Z,11.73
2019-04-12T18:25:19.351Z,12.27
2019-04-12T18:27:48.522Z,12.67
2019-04-12T18:30:19.250Z,11.83
2019-04-12T18:32:49.890Z,11.20
2019-04-12T18:35:19.389Z,11.40
2019-04-12T18:37:48.584Z,10.63
2019-04-12T18:40:18.045Z,11.20
2019-04-12T18:42:47.310Z,12.60
2019-04-12T18:45:16.496Z,12.67
2019-04-12T18:47:45.917Z,11.90
2019-04-12T18:50:15.104Z,12.47
2019-04-12T18:52:44.297Z,12.47
2019-04-12T18:55:13.545Z,12.63
2019-04-12T18:57:42.759Z,12.77
2019-04-12T19:00:13.070Z,11.80
2019-04-12T19:02:42.313Z,12.10
2019-04-12T19:05:11.574Z,11.47
2019-04-12T19:07:40.749Z,11.50
2019-04-12T19:10:10.561Z,11.63
2019-04-12T19:12:39.824Z,12.97
2019-04-12T19:15:09.956Z,12.30
2019-04-12T19:17:39.215Z,12.70
2019-04-12T19:20:08.629Z,12.13
2019-04-12T19:22:37.895Z,12.80
2019-04-12T19:25:07.508Z,12.60
2019-04-12T19:27:36.761Z,12.67
2019-04-12T19:30:08.201Z,12.20
2019-04-12T19:32:45.762Z,12.60
2019-04-12T19:35:22.574Z,12.07
2019-04-12T19:37:53.524Z,13.40
2019-04-12T19:40:30.509Z,12.33
2019-04-12T19:42:59.769Z,12.73
2019-04-12T19:45:28.944Z,12.73
2019-04-12T19:47:58.115Z,12.93
2019-04-12T19:50:27.304Z,12.70
2019-04-12T19:52:56.517Z,13.40
2019-04-12T19:55:25.944Z,12.30
2019-04-12T19:57:55.135Z,12.10
2019-04-12T20:00:24.300Z,13.07
2019-04-12T20:02:53.662Z,12.40
2019-04-12T20:05:22.856Z,12.60
2019-04-12T20:07:52.120Z,12.87
2019-04-12T20:10:21.295Z,12.00
2019-04-12T20:12:54.111Z,12.13
2019-04-12T20:15:23.416Z,12.53
2019-04-12T20:17:52.612Z,11.67
2019-04-12T20:20:21.785Z,12.00
2019-04-12T20:22:53.760Z,11.23
2019-04-12T20:25:21.853Z,12.40
2019-04-12T20:27:51.045Z,12.63
2019-04-12T20:30:20.216Z,12.20
2019-04-12T20:32:49.408Z,13.47
2019-04-12T20:35:18.580Z,12.80
2019-04-12T20:37:47.773Z,12.50
2019-04-12T20:40:17.273Z,12.20
2019-04-12T20:42:46.468Z,11.70
2019-04-12T20:45:15.651Z,13.00
2019-04-12T20:47:44.872Z,12.80
2019-04-12T20:50:14.046Z,12.20
2019-04-12T20:52:43.470Z,12.93
2019-04-12T20:55:12.996Z,13.93
2019-04-12T20:57:42.163Z,13.17
2019-04-12T21:00:12.050Z,13.20
2019-04-12T21:02:41.808Z,13.60
2019-04-12T21:05:11.016Z,12.83
2019-04-12T21:07:40.238Z,13.53
2019-04-12T21:10:09.868Z,12.27
2019-04-12T21:12:39.039Z,13.70
2019-04-12T21:15:08.497Z,12.67
2019-04-12T21:17:37.741Z,13.03
2019-04-12T21:20:07.103Z,13.00
2019-04-12T21:22:36.537Z,14.03
2019-04-12T21:25:06.345Z,13.13
2019-04-12T21:27:35.512Z,12.70
2019-04-12T21:30:06.613Z,13.40
2019-04-12T21:32:35.816Z,13.27
2019-04-12T21:35:17.237Z,13.27
2019-04-12T21:37:37.056Z,12.50
2019-04-12T21:40:06.296Z,12.47
2019-04-12T21:42:35.489Z,13.00
2019-04-12T21:45:05.821Z,13.30
2019-04-12T21:47:36.144Z,12.50
2019-04-12T21:50:06.249Z,13.07
2019-04-12T21:52:35.730Z,12.10
2019-04-12T21:55:06.261Z,13.13
2019-04-12T21:57:35.447Z,12.00
2019-04-12T22:00:15.260Z,12.97
2019-04-12T22:02:46.084Z,12.53
2019-04-12T22:05:15.757Z,12.73
2019-04-12T22:07:44.963Z,12.70
2019-04-12T22:10:14.152Z,12.60
2019-04-12T22:12:43.678Z,12.07
2019-04-12T22:15:12.914Z,11.83
2019-04-12T22:17:42.084Z,12.67
2019-04-12T22:20:11.347Z,11.63
2019-04-12T22:22:40.523Z,12.40
2019-04-12T22:25:10.063Z,12.20
2019-04-12T22:27:39.228Z,11.90
2019-04-12T22:30:09.374Z,11.30
2019-04-12T22:32:38.552Z,11.37
2019-04-12T22:35:08.293Z,11.73
2019-04-12T22:37:37.485Z,13.63
2019-04-12T22:40:07.615Z,12.50
2019-04-12T22:42:36.814Z,13.17
2019-04-12T22:45:06.653Z,12.63
2019-04-12T22:47:35.842Z,11.93
2019-04-12T22:50:07.933Z,12.63
2019-04-12T22:52:37.121Z,13.60
2019-04-12T22:55:08.502Z,12.50
2019-04-12T22:57:38.668Z,12.87
2019-04-12T23:00:07.820Z,13.00
2019-04-12T23:02:37.676Z,12.77
2019-04-12T23:05:07.317Z,14.50
2019-04-12T23:07:36.505Z,13.07
2019-04-12T23:10:06.812Z,13.23
2019-04-12T23:12:36.005Z,13.20
2019-04-12T23:15:07.590Z,12.70
2019-04-12T23:17:36.779Z,12.60
2019-04-12T23:20:08.628Z,12.83
2019-04-12T23:22:38.133Z,13.27
2019-04-12T23:25:07.493Z,12.80
2019-04-12T23:27:36.669Z,13.03
2019-04-12T23:30:11.043Z,13.00
2019-04-12T23:32:40.473Z,12.83
2019-04-12T23:35:23.246Z,13.93
2019-04-12T23:37:52.417Z,13.07
2019-04-12T23:40:21.639Z,13.40
2019-04-12T23:42:50.821Z,12.30
2019-04-12T23:45:21.631Z,12.33
2019-04-12T23:47:50.824Z,12.97
2019-04-12T23:50:19.996Z,12.30
2019-04-12T23:52:49.184Z,12.70
2019-04-12T23:55:18.356Z,12.47
2019-04-12T23:57:47.553Z,12.23
